sensor_id;sensor_type;location;lat;lon;timestamp;temperature;humidity
25716;DHT22;13573;50.936;4.328;2023-02-28T00:00:12;1.80;99.90
25716;DHT22;13573;50.936;4.328;2023-02-28T00:02:41;0.50;99.90
25716;DHT22;13573;50.936;4.328;2023-02-28T00:05:08;1.80;99.90
25716;DHT22;13573;50.936;4.328;2023-02-28T00:07:35;1.60;99.90
25716;DHT22;13573;50.936;4.328;2023-02-28T00:10:04;2.00;99.90
25716;DHT22;13573;50.936;4.328;2023-02-28T00:12:32;1.70;99.90
25716;DHT22;13573;50.936;4.328;2023-02-28T00:14:59;2.00;99.90
25716;DHT22;13573;50.936;4.328;2023-02-28T00:17:25;1.90;99.90
25716;DHT22;13573;50.936;4.328;2023-02-28T00:19:52;1.90;99.90
25716;DHT22;13573;50.936;4.328;2023-02-28T00:22:20;1.80;99.90
25716;DHT22;13573;50.936;4.328;2023-02-28T00:24:47;2.20;99.90
25716;DHT22;13573;50.936;4.328;2023-02-28T00:29:40;1.40;99.90
25716;DHT22;13573;50.936;4.328;2023-02-28T00:32:07;1.60;99.90
25716;DHT22;13573;50.936;4.328;2023-02-28T00:34:34;0.30;99.90
25716;DHT22;13573;50.936;4.328;2023-02-28T00:37:04;0.20;99.90
25716;DHT22;13573;50.936;4.328;2023-02-28T00:39:34;1.00;99.90
25716;DHT22;13573;50.936;4.328;2023-02-28T00:42:02;1.20;99.90
25716;DHT22;13573;50.936;4.328;2023-02-28T00:44:30;1.30;99.90
25716;DHT22;13573;50.936;4.328;2023-02-28T00:46:57;1.40;99.90
25716;DHT22;13573;50.936;4.328;2023-02-28T00:49:26;1.20;99.90
25716;DHT22;13573;50.936;4.328;2023-02-28T00:51:54;1.20;99.90
25716;DHT22;13573;50.936;4.328;2023-02-28T00:54:21;1.30;99.90
25716;DHT22;13573;50.936;4.328;2023-02-28T00:56:48;1.60;99.90
25716;DHT22;13573;50.936;4.328;2023-02-28T00:59:17;1.20;99.90
25716;DHT22;13573;50.936;4.328;2023-02-28T01:01:45;0.40;99.90
25716;DHT22;13573;50.936;4.328;2023-02-28T01:04:13;-0.10;99.90
25716;DHT22;13573;50.936;4.328;2023-02-28T01:06:40;0.90;99.90
25716;DHT22;13573;50.936;4.328;2023-02-28T01:09:07;0.70;99.90
25716;DHT22;13573;50.936;4.328;2023-02-28T01:11:34;1.00;99.90
25716;DHT22;13573;50.936;4.328;2023-02-28T01:14:02;1.00;99.90
25716;DHT22;13573;50.936;4.328;2023-02-28T01:16:29;1.60;99.90
25716;DHT22;13573;50.936;4.328;2023-02-28T01:18:56;1.10;99.90
25716;DHT22;13573;50.936;4.328;2023-02-28T01:21:25;1.20;99.90
25716;DHT22;13573;50.936;4.328;2023-02-28T01:23:51;1.40;99.90
25716;DHT22;13573;50.936;4.328;2023-02-28T01:26:20;1.40;99.90
25716;DHT22;13573;50.936;4.328;2023-02-28T01:28:49;1.40;99.90
25716;DHT22;13573;50.936;4.328;2023-02-28T01:31:17;1.20;99.90
25716;DHT22;13573;50.936;4.328;2023-02-28T01:33:44;1.30;99.90
25716;DHT22;13573;50.936;4.328;2023-02-28T01:36:15;1.20;99.90
25716;DHT22;13573;50.936;4.328;2023-02-28T01:38:43;1.00;99.90
25716;DHT22;13573;50.936;4.328;2023-02-28T01:41:16;2.70;99.90
25716;DHT22;13573;50.936;4.328;2023-02-28T01:44:01;1.10;99.90
25716;DHT22;13573;50.936;4.328;2023-02-28T01:46:31;1.30;99.90
25716;DHT22;13573;50.936;4.328;2023-02-28T01:49:01;1.40;99.90
25716;DHT22;13573;50.936;4.328;2023-02-28T01:51:34;1.10;99.90
25716;DHT22;13573;50.936;4.328;2023-02-28T01:54:07;1.20;99.90
25716;DHT22;13573;50.936;4.328;2023-02-28T01:56:36;1.70;99.90
25716;DHT22;13573;50.936;4.328;2023-02-28T01:59:03;1.30;99.90
25716;DHT22;13573;50.936;4.328;2023-02-28T02:01:31;0.90;99.90
25716;DHT22;13573;50.936;4.328;2023-02-28T02:04:01;1.00;99.90
25716;DHT22;13573;50.936;4.328;2023-02-28T02:06:38;0.60;99.90
25716;DHT22;13573;50.936;4.328;2023-02-28T02:09:06;1.10;99.90
25716;DHT22;13573;50.936;4.328;2023-02-28T02:11:34;-0.10;99.90
25716;DHT22;13573;50.936;4.328;2023-02-28T02:15:16;1.20;99.90
25716;DHT22;13573;50.936;4.328;2023-02-28T02:20:04;0.70;99.90
25716;DHT22;13573;50.936;4.328;2023-02-28T02:25:24;1.30;99.90
25716;DHT22;13573;50.936;4.328;2023-02-28T02:30:44;0.70;99.90
25716;DHT22;13573;50.936;4.328;2023-02-28T02:33:30;0.90;99.90
25716;DHT22;13573;50.936;4.328;2023-02-28T02:36:09;0.80;99.90
25716;DHT22;13573;50.936;4.328;2023-02-28T02:38:44;0.70;99.90
25716;DHT22;13573;50.936;4.328;2023-02-28T02:41:36;0.80;99.90
25716;DHT22;13573;50.936;4.328;2023-02-28T02:44:11;0.80;99.90
25716;DHT22;13573;50.936;4.328;2023-02-28T02:46:38;1.10;99.90
25716;DHT22;13573;50.936;4.328;2023-02-28T02:49:10;0.40;99.90
25716;DHT22;13573;50.936;4.328;2023-02-28T02:51:38;0.50;99.90
25716;DHT22;13573;50.936;4.328;2023-02-28T02:54:13;0.60;99.90
25716;DHT22;13573;50.936;4.328;2023-02-28T02:56:43;0.60;99.90
25716;DHT22;13573;50.936;4.328;2023-02-28T02:59:14;0.70;99.90
25716;DHT22;13573;50.936;4.328;2023-02-28T03:01:44;0.80;99.90
25716;DHT22;13573;50.936;4.328;2023-02-28T03:04:15;0.80;99.90
25716;DHT22;13573;50.936;4.328;2023-02-28T03:06:42;0.70;99.90
25716;DHT22;13573;50.936;4.328;2023-02-28T03:09:08;0.90;99.90
25716;DHT22;13573;50.936;4.328;2023-02-28T03:11:37;0.60;99.90
25716;DHT22;13573;50.936;4.328;2023-02-28T03:14:24;0.30;99.90
25716;DHT22;13573;50.936;4.328;2023-02-28T03:17:00;0.20;99.90
25716;DHT22;13573;50.936;4.328;2023-02-28T03:19:35;0.30;99.90
25716;DHT22;13573;50.936;4.328;2023-02-28T03:22:14;0.40;99.90
25716;DHT22;13573;50.936;4.328;2023-02-28T03:24:45;0.40;99.90
25716;DHT22;13573;50.936;4.328;2023-02-28T03:29:46;0.10;99.90
25716;DHT22;13573;50.936;4.328;2023-02-28T03:32:20;0.10;99.90
25716;DHT22;13573;50.936;4.328;2023-02-28T03:34:51;0.30;99.90
25716;DHT22;13573;50.936;4.328;2023-02-28T03:37:20;0.30;99.90
25716;DHT22;13573;50.936;4.328;2023-02-28T03:39:54;0.30;99.90
25716;DHT22;13573;50.936;4.328;2023-02-28T03:42:24;-0.40;99.90
25716;DHT22;13573;50.936;4.328;2023-02-28T03:44:57;0.20;99.90
25716;DHT22;13573;50.936;4.328;2023-02-28T03:47:32;0.30;99.90
25716;DHT22;13573;50.936;4.328;2023-02-28T03:50:15;0.40;99.90
25716;DHT22;13573;50.936;4.328;2023-02-28T03:52:47;0.60;99.90
25716;DHT22;13573;50.936;4.328;2023-02-28T03:55:14;0.40;99.90
25716;DHT22;13573;50.936;4.328;2023-02-28T03:57:51;0.30;99.90
25716;DHT22;13573;50.936;4.328;2023-02-28T04:00:25;0.40;99.90
25716;DHT22;13573;50.936;4.328;2023-02-28T04:02:54;0.20;99.90
25716;DHT22;13573;50.936;4.328;2023-02-28T04:05:22;0.20;99.90
25716;DHT22;13573;50.936;4.328;2023-02-28T04:07:49;0.00;99.90
25716;DHT22;13573;50.936;4.328;2023-02-28T04:10:16;0.00;99.90
25716;DHT22;13573;50.936;4.328;2023-02-28T04:12:44;0.90;99.90
25716;DHT22;13573;50.936;4.328;2023-02-28T04:15:10;0.20;99.90
25716;DHT22;13573;50.936;4.328;2023-02-28T04:17:37;0.20;99.90
25716;DHT22;13573;50.936;4.328;2023-02-28T04:20:04;0.20;99.90
25716;DHT22;13573;50.936;4.328;2023-02-28T04:22:33;0.30;99.90
25716;DHT22;13573;50.936;4.328;2023-02-28T04:24:59;0.60;99.90
25716;DHT22;13573;50.936;4.328;2023-02-28T04:27:26;-0.10;99.90
25716;DHT22;13573;50.936;4.328;2023-02-28T04:29:52;-1.20;99.90
25716;DHT22;13573;50.936;4.328;2023-02-28T04:32:19;-0.10;99.90
25716;DHT22;13573;50.936;4.328;2023-02-28T04:34:46;-0.10;99.90
25716;DHT22;13573;50.936;4.328;2023-02-28T04:37:12;-0.20;99.90
25716;DHT22;13573;50.936;4.328;2023-02-28T04:39:39;-1.40;99.90
25716;DHT22;13573;50.936;4.328;2023-02-28T04:42:06;-1.00;99.90
25716;DHT22;13573;50.936;4.328;2023-02-28T04:44:33;0.10;99.90
25716;DHT22;13573;50.936;4.328;2023-02-28T04:46:59;1.10;99.90
25716;DHT22;13573;50.936;4.328;2023-02-28T04:49:26;1.30;99.90
25716;DHT22;13573;50.936;4.328;2023-02-28T04:51:52;0.20;99.90
25716;DHT22;13573;50.936;4.328;2023-02-28T04:54:19;-0.70;99.90
25716;DHT22;13573;50.936;4.328;2023-02-28T04:56:46;-0.60;99.90
25716;DHT22;13573;50.936;4.328;2023-02-28T04:59:14;0.60;99.90
25716;DHT22;13573;50.936;4.328;2023-02-28T05:01:47;0.80;99.90
25716;DHT22;13573;50.936;4.328;2023-02-28T05:04:13;1.10;99.90
25716;DHT22;13573;50.936;4.328;2023-02-28T05:06:40;1.30;99.90
25716;DHT22;13573;50.936;4.328;2023-02-28T05:09:07;0.80;99.90
25716;DHT22;13573;50.936;4.328;2023-02-28T05:11:34;1.30;99.90
25716;DHT22;13573;50.936;4.328;2023-02-28T05:14:03;1.60;99.90
25716;DHT22;13573;50.936;4.328;2023-02-28T05:16:30;1.10;99.90
25716;DHT22;13573;50.936;4.328;2023-02-28T05:18:57;1.10;99.90
25716;DHT22;13573;50.936;4.328;2023-02-28T05:23:58;-0.20;99.90
25716;DHT22;13573;50.936;4.328;2023-02-28T05:26:25;1.10;99.90
25716;DHT22;13573;50.936;4.328;2023-02-28T05:28:52;0.80;99.90
25716;DHT22;13573;50.936;4.328;2023-02-28T05:31:19;0.30;99.90
25716;DHT22;13573;50.936;4.328;2023-02-28T05:33:46;0.50;99.90
25716;DHT22;13573;50.936;4.328;2023-02-28T05:36:14;1.10;99.90
25716;DHT22;13573;50.936;4.328;2023-02-28T05:38:40;0.60;99.90
25716;DHT22;13573;50.936;4.328;2023-02-28T05:41:09;1.50;99.90
25716;DHT22;13573;50.936;4.328;2023-02-28T05:43:37;0.30;99.90
25716;DHT22;13573;50.936;4.328;2023-02-28T05:48:32;1.90;99.90
25716;DHT22;13573;50.936;4.328;2023-02-28T05:53:26;1.20;99.90
25716;DHT22;13573;50.936;4.328;2023-02-28T05:55:53;1.70;99.90
25716;DHT22;13573;50.936;4.328;2023-02-28T05:58:20;1.50;99.90
25716;DHT22;13573;50.936;4.328;2023-02-28T06:00:48;1.50;99.90
25716;DHT22;13573;50.936;4.328;2023-02-28T06:05:41;1.70;99.90
25716;DHT22;13573;50.936;4.328;2023-02-28T06:08:08;1.70;99.90
25716;DHT22;13573;50.936;4.328;2023-02-28T06:10:35;1.80;99.90
25716;DHT22;13573;50.936;4.328;2023-02-28T06:15:29;1.80;99.90
25716;DHT22;13573;50.936;4.328;2023-02-28T06:17:57;0.60;99.90
25716;DHT22;13573;50.936;4.328;2023-02-28T06:20:25;0.70;99.90
25716;DHT22;13573;50.936;4.328;2023-02-28T06:25:21;1.60;99.90
25716;DHT22;13573;50.936;4.328;2023-02-28T06:27:48;0.70;99.90
25716;DHT22;13573;50.936;4.328;2023-02-28T06:30:16;0.80;99.90
25716;DHT22;13573;50.936;4.328;2023-02-28T06:32:44;1.70;99.90
25716;DHT22;13573;50.936;4.328;2023-02-28T06:35:10;1.40;99.90
25716;DHT22;13573;50.936;4.328;2023-02-28T06:37:37;2.00;99.90
25716;DHT22;13573;50.936;4.328;2023-02-28T06:40:04;2.20;99.90
25716;DHT22;13573;50.936;4.328;2023-02-28T06:44:59;1.90;99.90
25716;DHT22;13573;50.936;4.328;2023-02-28T06:47:27;1.60;99.90
25716;DHT22;13573;50.936;4.328;2023-02-28T06:49:53;2.00;99.90
25716;DHT22;13573;50.936;4.328;2023-02-28T06:54:48;2.70;99.90
25716;DHT22;13573;50.936;4.328;2023-02-28T07:02:09;2.90;99.90
25716;DHT22;13573;50.936;4.328;2023-02-28T07:04:36;2.80;99.90
25716;DHT22;13573;50.936;4.328;2023-02-28T07:09:31;3.40;99.90
25716;DHT22;13573;50.936;4.328;2023-02-28T07:11:58;3.50;99.90
25716;DHT22;13573;50.936;4.328;2023-02-28T07:14:26;2.90;99.90
25716;DHT22;13573;50.936;4.328;2023-02-28T07:16:53;2.20;99.90
25716;DHT22;13573;50.936;4.328;2023-02-28T07:19:19;2.30;99.90
25716;DHT22;13573;50.936;4.328;2023-02-28T07:21:46;3.50;99.90
25716;DHT22;13573;50.936;4.328;2023-02-28T07:24:13;3.30;99.90
25716;DHT22;13573;50.936;4.328;2023-02-28T07:26:41;3.50;99.90
25716;DHT22;13573;50.936;4.328;2023-02-28T07:29:08;2.90;99.90
25716;DHT22;13573;50.936;4.328;2023-02-28T07:38:55;4.00;99.90
25716;DHT22;13573;50.936;4.328;2023-02-28T07:41:22;4.00;99.90
25716;DHT22;13573;50.936;4.328;2023-02-28T07:43:53;4.50;99.90
25716;DHT22;13573;50.936;4.328;2023-02-28T07:46:21;4.70;99.90
25716;DHT22;13573;50.936;4.328;2023-02-28T07:48:48;5.80;99.90
25716;DHT22;13573;50.936;4.328;2023-02-28T07:51:14;5.90;99.90
25716;DHT22;13573;50.936;4.328;2023-02-28T07:58:36;8.10;99.90
25716;DHT22;13573;50.936;4.328;2023-02-28T08:01:09;8.70;99.90
25716;DHT22;13573;50.936;4.328;2023-02-28T08:03:36;9.70;99.90
25716;DHT22;13573;50.936;4.328;2023-02-28T08:06:05;10.60;99.90
25716;DHT22;13573;50.936;4.328;2023-02-28T08:08:32;11.10;99.90
25716;DHT22;13573;50.936;4.328;2023-02-28T08:11:01;11.50;99.90
25716;DHT22;13573;50.936;4.328;2023-02-28T08:13:29;9.00;99.90
25716;DHT22;13573;50.936;4.328;2023-02-28T08:15:56;8.60;99.90
25716;DHT22;13573;50.936;4.328;2023-02-28T08:18:23;8.40;99.90
25716;DHT22;13573;50.936;4.328;2023-02-28T08:20:50;7.20;99.90
25716;DHT22;13573;50.936;4.328;2023-02-28T08:23:16;7.00;99.90
25716;DHT22;13573;50.936;4.328;2023-02-28T08:28:10;6.30;99.90
25716;DHT22;13573;50.936;4.328;2023-02-28T08:30:36;4.90;99.90
25716;DHT22;13573;50.936;4.328;2023-02-28T08:35:30;5.00;99.90
25716;DHT22;13573;50.936;4.328;2023-02-28T08:37:57;5.10;99.90
25716;DHT22;13573;50.936;4.328;2023-02-28T08:40:24;4.90;99.90
25716;DHT22;13573;50.936;4.328;2023-02-28T08:42:52;5.50;99.90
25716;DHT22;13573;50.936;4.328;2023-02-28T08:45:18;6.50;99.90
25716;DHT22;13573;50.936;4.328;2023-02-28T08:47:45;7.10;99.90
25716;DHT22;13573;50.936;4.328;2023-02-28T08:50:12;8.00;99.90
25716;DHT22;13573;50.936;4.328;2023-02-28T08:52:42;8.30;99.90
25716;DHT22;13573;50.936;4.328;2023-02-28T08:55:10;8.40;99.90
25716;DHT22;13573;50.936;4.328;2023-02-28T08:57:36;9.00;99.90
25716;DHT22;13573;50.936;4.328;2023-02-28T09:00:03;12.30;99.90
25716;DHT22;13573;50.936;4.328;2023-02-28T09:02:32;8.90;99.90
25716;DHT22;13573;50.936;4.328;2023-02-28T09:04:58;8.90;99.90
25716;DHT22;13573;50.936;4.328;2023-02-28T09:07:25;10.60;99.90
25716;DHT22;13573;50.936;4.328;2023-02-28T09:09:52;9.10;99.90
25716;DHT22;13573;50.936;4.328;2023-02-28T09:12:24;8.60;99.90
25716;DHT22;13573;50.936;4.328;2023-02-28T09:14:51;8.30;99.90
25716;DHT22;13573;50.936;4.328;2023-02-28T09:17:19;8.20;99.90
25716;DHT22;13573;50.936;4.328;2023-02-28T09:19:48;7.70;99.90
25716;DHT22;13573;50.936;4.328;2023-02-28T09:22:15;7.80;99.90
25716;DHT22;13573;50.936;4.328;2023-02-28T09:24:42;7.30;99.90
25716;DHT22;13573;50.936;4.328;2023-02-28T09:27:10;7.40;99.90
25716;DHT22;13573;50.936;4.328;2023-02-28T09:29:37;7.60;99.90
25716;DHT22;13573;50.936;4.328;2023-02-28T09:32:03;7.70;99.90
25716;DHT22;13573;50.936;4.328;2023-02-28T09:34:32;7.70;99.90
25716;DHT22;13573;50.936;4.328;2023-02-28T09:36:58;8.10;99.90
25716;DHT22;13573;50.936;4.328;2023-02-28T09:39:25;8.70;99.90
25716;DHT22;13573;50.936;4.328;2023-02-28T09:41:54;11.20;99.90
25716;DHT22;13573;50.936;4.328;2023-02-28T09:44:29;11.20;99.90
25716;DHT22;13573;50.936;4.328;2023-02-28T09:47:01;10.80;99.90
25716;DHT22;13573;50.936;4.328;2023-02-28T09:49:33;11.00;99.90
25716;DHT22;13573;50.936;4.328;2023-02-28T09:52:04;9.00;99.90
25716;DHT22;13573;50.936;4.328;2023-02-28T09:54:33;9.20;99.90
25716;DHT22;13573;50.936;4.328;2023-02-28T09:57:44;9.60;99.90
25716;DHT22;13573;50.936;4.328;2023-02-28T10:00:03;10.70;99.90
25716;DHT22;13573;50.936;4.328;2023-02-28T10:03:02;9.30;99.90
25716;DHT22;13573;50.936;4.328;2023-02-28T10:05:31;10.00;99.90
25716;DHT22;13573;50.936;4.328;2023-02-28T10:08:14;10.10;99.90
25716;DHT22;13573;50.936;4.328;2023-02-28T10:10:48;9.80;99.90
25716;DHT22;13573;50.936;4.328;2023-02-28T10:13:20;11.20;99.90
25716;DHT22;13573;50.936;4.328;2023-02-28T10:15:50;9.60;99.90
25716;DHT22;13573;50.936;4.328;2023-02-28T10:18:21;10.00;99.90
25716;DHT22;13573;50.936;4.328;2023-02-28T10:20:49;11.20;99.90
25716;DHT22;13573;50.936;4.328;2023-02-28T10:23:20;11.30;99.90
25716;DHT22;13573;50.936;4.328;2023-02-28T10:26:00;11.00;99.90
25716;DHT22;13573;50.936;4.328;2023-02-28T10:28:29;13.00;99.90
25716;DHT22;13573;50.936;4.328;2023-02-28T10:30:57;11.50;99.90
25716;DHT22;13573;50.936;4.328;2023-02-28T10:33:29;11.50;96.30
25716;DHT22;13573;50.936;4.328;2023-02-28T10:35:57;11.00;99.90
25716;DHT22;13573;50.936;4.328;2023-02-28T10:38:33;10.60;99.90
25716;DHT22;13573;50.936;4.328;2023-02-28T10:41:05;11.40;99.90
25716;DHT22;13573;50.936;4.328;2023-02-28T10:43:33;12.00;99.90
25716;DHT22;13573;50.936;4.328;2023-02-28T10:46:03;11.00;99.90
25716;DHT22;13573;50.936;4.328;2023-02-28T10:48:34;11.90;99.90
25716;DHT22;13573;50.936;4.328;2023-02-28T10:51:02;12.60;99.90
25716;DHT22;13573;50.936;4.328;2023-02-28T10:53:33;12.70;93.50
25716;DHT22;13573;50.936;4.328;2023-02-28T10:56:16;12.90;99.50
25716;DHT22;13573;50.936;4.328;2023-02-28T11:03:48;12.20;98.00
25716;DHT22;13573;50.936;4.328;2023-02-28T11:11:17;11.10;99.90
25716;DHT22;13573;50.936;4.328;2023-02-28T11:13:48;10.60;99.90
25716;DHT22;13573;50.936;4.328;2023-02-28T11:16:16;10.40;99.90
25716;DHT22;13573;50.936;4.328;2023-02-28T11:18:49;11.00;99.90
25716;DHT22;13573;50.936;4.328;2023-02-28T11:21:20;11.40;99.90
25716;DHT22;13573;50.936;4.328;2023-02-28T11:23:48;11.50;99.90
25716;DHT22;13573;50.936;4.328;2023-02-28T11:26:16;11.60;99.90
25716;DHT22;13573;50.936;4.328;2023-02-28T11:28:45;11.10;99.90
25716;DHT22;13573;50.936;4.328;2023-02-28T11:33:49;11.00;99.90
25716;DHT22;13573;50.936;4.328;2023-02-28T11:36:23;12.10;99.90
25716;DHT22;13573;50.936;4.328;2023-02-28T11:38:51;12.10;92.80
25716;DHT22;13573;50.936;4.328;2023-02-28T11:41:33;13.30;98.70
25716;DHT22;13573;50.936;4.328;2023-02-28T11:47:08;13.20;99.70
25716;DHT22;13573;50.936;4.328;2023-02-28T11:49:40;13.50;98.30
25716;DHT22;13573;50.936;4.328;2023-02-28T11:57:50;13.00;97.90
25716;DHT22;13573;50.936;4.328;2023-02-28T12:00:38;12.80;97.10
25716;DHT22;13573;50.936;4.328;2023-02-28T12:05:47;13.40;96.60
25716;DHT22;13573;50.936;4.328;2023-02-28T12:08:42;11.00;97.60
25716;DHT22;13573;50.936;4.328;2023-02-28T12:13:51;11.90;97.80
25716;DHT22;13573;50.936;4.328;2023-02-28T12:19:32;12.70;98.60
25716;DHT22;13573;50.936;4.328;2023-02-28T12:22:12;11.30;97.40
25716;DHT22;13573;50.936;4.328;2023-02-28T12:24:48;11.80;97.20
25716;DHT22;13573;50.936;4.328;2023-02-28T12:27:15;13.50;97.50
25716;DHT22;13573;50.936;4.328;2023-02-28T12:29:49;12.90;96.50
25716;DHT22;13573;50.936;4.328;2023-02-28T12:32:20;12.70;96.30
25716;DHT22;13573;50.936;4.328;2023-02-28T12:34:52;14.40;95.80
25716;DHT22;13573;50.936;4.328;2023-02-28T12:37:27;13.00;94.80
25716;DHT22;13573;50.936;4.328;2023-02-28T12:42:28;14.70;95.20
25716;DHT22;13573;50.936;4.328;2023-02-28T12:44:59;15.00;95.10
25716;DHT22;13573;50.936;4.328;2023-02-28T12:47:26;15.10;84.70
25716;DHT22;13573;50.936;4.328;2023-02-28T12:49:59;12.90;95.70
25716;DHT22;13573;50.936;4.328;2023-02-28T12:52:35;12.90;96.10
25716;DHT22;13573;50.936;4.328;2023-02-28T12:55:04;13.30;96.00
25716;DHT22;13573;50.936;4.328;2023-02-28T13:00:18;13.40;94.20
25716;DHT22;13573;50.936;4.328;2023-02-28T13:02:55;14.00;93.30
25716;DHT22;13573;50.936;4.328;2023-02-28T13:05:32;13.40;88.00
25716;DHT22;13573;50.936;4.328;2023-02-28T13:08:26;14.60;94.00
25716;DHT22;13573;50.936;4.328;2023-02-28T13:10:51;14.00;94.20
25716;DHT22;13573;50.936;4.328;2023-02-28T13:13:24;12.90;94.00
25716;DHT22;13573;50.936;4.328;2023-02-28T13:16:04;14.10;93.50
25716;DHT22;13573;50.936;4.328;2023-02-28T13:18:37;13.20;94.50
25716;DHT22;13573;50.936;4.328;2023-02-28T13:21:08;11.80;94.50
25716;DHT22;13573;50.936;4.328;2023-02-28T13:23:56;11.80;95.20
25716;DHT22;13573;50.936;4.328;2023-02-28T13:26:09;13.30;94.60
25716;DHT22;13573;50.936;4.328;2023-02-28T13:31:31;13.50;94.40
25716;DHT22;13573;50.936;4.328;2023-02-28T13:34:12;13.70;94.10
25716;DHT22;13573;50.936;4.328;2023-02-28T13:36:34;13.70;91.30
25716;DHT22;13573;50.936;4.328;2023-02-28T13:39:11;12.10;93.50
25716;DHT22;13573;50.936;4.328;2023-02-28T13:41:47;11.70;94.60
25716;DHT22;13573;50.936;4.328;2023-02-28T13:44:17;13.00;95.00
25716;DHT22;13573;50.936;4.328;2023-02-28T13:49:46;12.60;95.10
25716;DHT22;13573;50.936;4.328;2023-02-28T13:52:18;12.50;94.80
25716;DHT22;13573;50.936;4.328;2023-02-28T13:55:38;13.30;95.00
25716;DHT22;13573;50.936;4.328;2023-02-28T13:57:57;13.50;94.60
25716;DHT22;13573;50.936;4.328;2023-02-28T14:00:36;12.80;94.80
25716;DHT22;13573;50.936;4.328;2023-02-28T14:03:32;12.80;94.50
25716;DHT22;13573;50.936;4.328;2023-02-28T14:06:25;12.90;94.80
25716;DHT22;13573;50.936;4.328;2023-02-28T14:09:29;11.70;94.40
25716;DHT22;13573;50.936;4.328;2023-02-28T14:11:41;11.70;94.30
25716;DHT22;13573;50.936;4.328;2023-02-28T14:14:53;11.20;94.90
25716;DHT22;13573;50.936;4.328;2023-02-28T14:16:46;11.80;94.90
25716;DHT22;13573;50.936;4.328;2023-02-28T14:19:22;12.30;94.10
25716;DHT22;13573;50.936;4.328;2023-02-28T14:22:01;10.70;94.60
25716;DHT22;13573;50.936;4.328;2023-02-28T14:24:34;10.90;95.20
25716;DHT22;13573;50.936;4.328;2023-02-28T14:27:07;10.60;95.20
25716;DHT22;13573;50.936;4.328;2023-02-28T14:29:51;10.90;95.10
25716;DHT22;13573;50.936;4.328;2023-02-28T14:34:53;12.10;96.40
25716;DHT22;13573;50.936;4.328;2023-02-28T14:37:26;11.30;95.20
25716;DHT22;13573;50.936;4.328;2023-02-28T14:39:52;11.40;92.20
25716;DHT22;13573;50.936;4.328;2023-02-28T14:42:38;10.90;95.80
25716;DHT22;13573;50.936;4.328;2023-02-28T14:47:43;12.10;95.80
25716;DHT22;13573;50.936;4.328;2023-02-28T14:52:44;12.30;96.00
25716;DHT22;13573;50.936;4.328;2023-02-28T14:55:14;12.40;95.90
25716;DHT22;13573;50.936;4.328;2023-02-28T14:57:58;10.50;95.90
25716;DHT22;13573;50.936;4.328;2023-02-28T15:00:28;12.10;95.80
25716;DHT22;13573;50.936;4.328;2023-02-28T15:02:58;12.20;85.50
25716;DHT22;13573;50.936;4.328;2023-02-28T15:05:29;12.70;95.60
25716;DHT22;13573;50.936;4.328;2023-02-28T15:08:14;13.00;95.50
25716;DHT22;13573;50.936;4.328;2023-02-28T15:10:45;12.20;95.70
25716;DHT22;13573;50.936;4.328;2023-02-28T15:13:14;12.30;85.90
25716;DHT22;13573;50.936;4.328;2023-02-28T15:18:25;11.40;96.60
25716;DHT22;13573;50.936;4.328;2023-02-28T15:20:52;11.70;97.00
25716;DHT22;13573;50.936;4.328;2023-02-28T15:23:20;9.40;97.20
25716;DHT22;13573;50.936;4.328;2023-02-28T15:25:48;10.40;91.00
25716;DHT22;13573;50.936;4.328;2023-02-28T15:31:18;10.30;99.00
25716;DHT22;13573;50.936;4.328;2023-02-28T15:33:35;10.60;99.40
25716;DHT22;13573;50.936;4.328;2023-02-28T15:36:06;8.90;99.40
25716;DHT22;13573;50.936;4.328;2023-02-28T15:38:35;7.80;99.90
25716;DHT22;13573;50.936;4.328;2023-02-28T15:41:02;8.10;99.90
25716;DHT22;13573;50.936;4.328;2023-02-28T15:43:35;8.30;99.90
25716;DHT22;13573;50.936;4.328;2023-02-28T15:46:11;8.40;93.00
25716;DHT22;13573;50.936;4.328;2023-02-28T15:48:53;6.70;99.90
25716;DHT22;13573;50.936;4.328;2023-02-28T15:51:29;6.10;99.90
25716;DHT22;13573;50.936;4.328;2023-02-28T15:53:59;7.60;99.90
25716;DHT22;13573;50.936;4.328;2023-02-28T15:56:28;7.50;93.50
25716;DHT22;13573;50.936;4.328;2023-02-28T15:58:58;7.10;99.90
25716;DHT22;13573;50.936;4.328;2023-02-28T16:01:27;7.30;99.90
25716;DHT22;13573;50.936;4.328;2023-02-28T16:04:01;7.00;99.90
25716;DHT22;13573;50.936;4.328;2023-02-28T16:06:35;7.10;96.10
25716;DHT22;13573;50.936;4.328;2023-02-28T16:11:30;5.50;99.90
25716;DHT22;13573;50.936;4.328;2023-02-28T16:16:26;5.30;99.90
25716;DHT22;13573;50.936;4.328;2023-02-28T16:18:52;6.10;99.90
25716;DHT22;13573;50.936;4.328;2023-02-28T16:21:19;6.50;99.90
25716;DHT22;13573;50.936;4.328;2023-02-28T16:23:46;6.70;96.50
25716;DHT22;13573;50.936;4.328;2023-02-28T16:26:23;5.50;99.90
25716;DHT22;13573;50.936;4.328;2023-02-28T16:28:51;5.80;99.90
25716;DHT22;13573;50.936;4.328;2023-02-28T16:31:19;6.90;95.60
25716;DHT22;13573;50.936;4.328;2023-02-28T16:33:46;6.60;99.90
25716;DHT22;13573;50.936;4.328;2023-02-28T16:36:16;6.60;96.80
25716;DHT22;13573;50.936;4.328;2023-02-28T16:38:43;5.30;99.90
25716;DHT22;13573;50.936;4.328;2023-02-28T16:41:16;5.50;99.90
25716;DHT22;13573;50.936;4.328;2023-02-28T16:43:47;5.10;99.90
25716;DHT22;13573;50.936;4.328;2023-02-28T16:46:15;6.60;96.60
25716;DHT22;13573;50.936;4.328;2023-02-28T16:48:44;6.00;99.90
25716;DHT22;13573;50.936;4.328;2023-02-28T16:51:13;5.90;99.90
25716;DHT22;13573;50.936;4.328;2023-02-28T16:53:42;6.00;98.20
25716;DHT22;13573;50.936;4.328;2023-02-28T16:56:16;5.80;99.90
25716;DHT22;13573;50.936;4.328;2023-02-28T16:58:43;6.10;99.90
25716;DHT22;13573;50.936;4.328;2023-02-28T17:01:10;5.90;99.90
25716;DHT22;13573;50.936;4.328;2023-02-28T17:03:37;6.10;99.90
25716;DHT22;13573;50.936;4.328;2023-02-28T17:06:12;6.00;99.30
25716;DHT22;13573;50.936;4.328;2023-02-28T17:08:35;5.50;99.90
25716;DHT22;13573;50.936;4.328;2023-02-28T17:11:02;5.90;99.80
25716;DHT22;13573;50.936;4.328;2023-02-28T17:13:28;5.70;99.90
25716;DHT22;13573;50.936;4.328;2023-02-28T17:15:55;5.70;99.80
25716;DHT22;13573;50.936;4.328;2023-02-28T17:18:22;4.50;99.90
25716;DHT22;13573;50.936;4.328;2023-02-28T17:20:49;5.60;99.90
25716;DHT22;13573;50.936;4.328;2023-02-28T17:23:16;5.40;99.90
25716;DHT22;13573;50.936;4.328;2023-02-28T17:25:42;4.40;99.90
25716;DHT22;13573;50.936;4.328;2023-02-28T17:28:11;5.20;99.90
25716;DHT22;13573;50.936;4.328;2023-02-28T17:30:38;5.60;99.80
25716;DHT22;13573;50.936;4.328;2023-02-28T17:33:07;5.40;99.90
25716;DHT22;13573;50.936;4.328;2023-02-28T17:35:34;5.20;99.90
25716;DHT22;13573;50.936;4.328;2023-02-28T17:38:00;5.40;99.90
25716;DHT22;13573;50.936;4.328;2023-02-28T17:40:27;5.60;99.90
25716;DHT22;13573;50.936;4.328;2023-02-28T17:42:53;5.40;99.90
25716;DHT22;13573;50.936;4.328;2023-02-28T17:45:22;5.30;99.90
25716;DHT22;13573;50.936;4.328;2023-02-28T17:47:49;3.70;99.90
25716;DHT22;13573;50.936;4.328;2023-02-28T17:50:20;5.20;99.90
25716;DHT22;13573;50.936;4.328;2023-02-28T17:52:47;5.50;99.90
25716;DHT22;13573;50.936;4.328;2023-02-28T17:55:14;5.50;99.90